Time;durP1;ratioP1;P1;durP2;ratioP2;P2;SDS_P1;SDS_P2;PMS_P1;PMS_P2;Temp;Humidity;BMP_temperature;BMP_pressure;BME280_temperature;BME280_humidity;BME280_pressure;Samples;Min_cycle;Max_cycle;Signal;HPM_P1;HPM_P2
2023/06/22 00:03:41;;;;;;;2.00;1.50;;;;;;;24.52;40.14;101787.28;16096924;19;131705;-44
2023/06/22 00:09:03;;;;;;;1.95;1.50;;;;;;;24.51;40.27;101777.22;16097758;19;129966;-43
2023/06/22 00:14:25;;;;;;;2.08;1.58;;;;;;;24.51;40.19;101774.41;16102008;19;130487;-46
2023/06/22 00:19:47;;;;;;;2.45;1.45;;;;;;;24.52;40.20;101778.91;16096220;19;131649;-44
2023/06/22 00:25:10;;;;;;;1.80;1.30;;;;;;;24.52;40.23;101773.31;16092991;19;130504;-44
2023/06/22 00:30:32;;;;;;;3.15;1.58;;;;;;;24.50;40.62;101778.31;16119574;19;130070;-43
2023/06/22 00:35:54;;;;;;;2.50;1.42;;;;;;;24.50;40.26;101775.50;16119035;19;129373;-44
2023/06/22 00:41:17;;;;;;;2.10;1.40;;;;;;;24.50;40.32;101761.53;16116932;19;129274;-50
2023/06/22 00:46:39;;;;;;;2.85;1.50;;;;;;;24.49;40.46;101751.47;16117035;19;129575;-50
2023/06/22 00:52:02;;;;;;;3.65;2.00;;;;;;;24.48;40.30;101749.78;16111370;19;131863;-51
2023/06/22 00:57:27;;;;;;;2.80;1.65;;;;;;;24.46;40.39;101760.41;16115871;19;132165;-53
2023/06/22 01:02:53;;;;;;;2.22;1.55;;;;;;;24.46;40.48;101752.00;16113931;19;130321;-49
2023/06/22 01:08:31;;;;;;;1.90;1.60;;;;;;;24.46;40.41;101749.22;16111364;19;129209;-42
2023/06/22 01:14:20;;;;;;;1.67;1.58;;;;;;;24.46;40.51;101753.94;16112778;19;129566;-41
2023/06/22 01:19:55;;;;;;;2.00;1.67;;;;;;;24.44;40.64;101757.03;16111975;19;130117;-44
2023/06/22 01:25:31;;;;;;;2.00;1.80;;;;;;;24.42;40.37;101757.28;16111568;19;132292;-43
2023/06/22 01:31:03;;;;;;;1.77;1.50;;;;;;;24.43;40.18;101756.16;16116968;19;130968;-42
2023/06/22 01:36:26;;;;;;;2.85;1.58;;;;;;;24.42;40.70;101746.09;16110740;19;131432;-48
2023/06/22 01:41:49;;;;;;;3.03;1.50;;;;;;;24.42;40.30;101757.28;16112845;19;131176;-43
2023/06/22 01:47:13;;;;;;;1.83;1.50;;;;;;;24.42;40.30;101748.03;16111544;19;131293;-42
2023/06/22 01:52:35;;;;;;;2.43;1.60;;;;;;;24.41;40.33;101738.81;16108190;19;130953;-42
2023/06/22 01:57:57;;;;;;;3.53;1.85;;;;;;;24.41;40.34;101729.56;16107147;19;130316;-42
2023/06/22 02:03:29;;;;;;;2.20;1.63;;;;;;;24.41;40.24;101735.16;16111102;19;129893;-43
2023/06/22 02:08:59;;;;;;;1.73;1.55;;;;;;;24.41;40.59;101726.78;16107834;19;130862;-45
2023/06/22 02:14:22;;;;;;;1.98;1.38;;;;;;;24.39;40.71;101731.78;16114695;19;131354;-43
2023/06/22 02:19:44;;;;;;;2.72;1.60;;;;;;;24.38;40.54;101730.09;16108535;19;130950;-42
2023/06/22 02:25:06;;;;;;;2.00;1.75;;;;;;;24.38;40.54;101735.69;16109704;19;130824;-43
2023/06/22 02:30:28;;;;;;;3.30;2.10;;;;;;;24.37;40.40;101731.25;16112021;19;129690;-45
2023/06/22 02:35:50;;;;;;;1.85;1.40;;;;;;;24.36;40.13;101727.59;16108729;19;131395;-41
2023/06/22 02:41:13;;;;;;;2.75;1.67;;;;;;;24.37;40.47;101722.84;16113094;19;132341;-42
2023/06/22 02:46:36;;;;;;;1.60;1.30;;;;;;;24.35;40.43;101709.13;16101422;19;129423;-41
2023/06/22 02:51:58;;;;;;;2.80;1.73;;;;;;;24.34;40.34;101701.00;16109825;19;130300;-41
2023/06/22 02:57:20;;;;;;;3.30;1.60;;;;;;;24.34;40.45;101701.00;16103815;19;130257;-42
2023/06/22 03:02:41;;;;;;;1.95;1.50;;;;;;;24.34;40.27;101689.81;16111492;19;130418;-42
2023/06/22 03:08:04;;;;;;;2.00;1.40;;;;;;;24.33;40.71;101685.34;16101648;19;130257;-42
2023/06/22 03:13:27;;;;;;;1.80;1.42;;;;;;;24.34;40.24;101685.06;16101939;19;130456;-44
2023/06/22 03:18:49;;;;;;;2.63;1.70;;;;;;;24.34;40.41;101675.84;16104152;19;129895;-46
2023/06/22 03:24:11;;;;;;;2.30;1.90;;;;;;;24.33;40.26;101671.34;16109767;19;131308;-42
2023/06/22 03:29:34;;;;;;;1.75;1.38;;;;;;;24.32;40.39;101669.66;16097215;19;131687;-43
2023/06/22 03:34:58;;;;;;;2.10;1.55;;;;;;;24.32;40.36;101676.09;16101869;19;132619;-47
2023/06/22 03:40:20;;;;;;;2.10;1.40;;;;;;;24.32;40.46;101678.06;16100640;19;131341;-43
2023/06/22 03:45:45;;;;;;;2.28;1.70;;;;;;;24.30;40.36;101672.75;16099522;19;131719;-42
2023/06/22 03:51:07;;;;;;;2.10;1.70;;;;;;;24.30;40.30;101669.94;16105690;19;132614;-45
2023/06/22 03:56:29;;;;;;;2.38;1.73;;;;;;;24.27;40.54;101660.13;16103428;19;131980;-48
2023/06/22 04:01:51;;;;;;;4.05;2.10;;;;;;;24.27;40.68;101674.09;16105127;19;131971;-51
2023/06/22 04:07:13;;;;;;;2.65;1.80;;;;;;;24.27;40.45;101676.88;16112935;19;130776;-50
2023/06/22 04:12:34;;;;;;;3.58;2.00;;;;;;;24.27;40.32;101673.25;16118282;19;129855;-48
2023/06/22 04:17:57;;;;;;;2.03;1.83;;;;;;;24.24;40.69;101674.66;16110619;19;131535;-47
2023/06/22 04:23:19;;;;;;;3.40;2.15;;;;;;;24.24;40.33;101671.84;16113250;19;130568;-51
2023/06/22 04:28:41;;;;;;;3.08;2.25;;;;;;;24.23;40.15;101678.53;16114355;19;130214;-48
2023/06/22 04:34:07;;;;;;;3.25;1.88;;;;;;;24.23;40.32;101675.72;16113969;19;131514;-47
2023/06/22 04:39:29;;;;;;;2.00;1.80;;;;;;;24.23;40.27;101678.53;16114898;19;130518;-44
2023/06/22 04:44:51;;;;;;;2.80;2.00;;;;;;;24.23;40.39;101677.66;16116450;19;130718;-42
2023/06/22 04:50:13;;;;;;;2.38;1.88;;;;;;;24.22;40.57;101670.38;16116329;19;131584;-44
2023/06/22 04:55:37;;;;;;;2.17;1.70;;;;;;;24.22;40.51;101671.25;16117636;19;131657;-44
2023/06/22 05:00:59;;;;;;;1.90;1.70;;;;;;;24.21;40.47;101657.50;16111014;19;130909;-43
2023/06/22 05:06:25;;;;;;;2.65;1.90;;;;;;;24.21;40.43;101658.38;16110426;19;130317;-46
2023/06/22 05:11:47;;;;;;;2.33;1.83;;;;;;;24.20;40.68;101662.28;16105400;19;132631;-42
2023/06/22 05:17:13;;;;;;;2.95;1.80;;;;;;;24.20;40.25;101673.47;16108128;19;131327;-41
2023/06/22 05:22:37;;;;;;;6.28;1.90;;;;;;;24.20;40.62;101673.47;16118908;19;129720;-42
2023/06/22 05:27:59;;;;;;;6.90;3.55;;;;;;;24.20;40.57;101675.41;16116951;19;130211;-42
2023/06/22 05:33:21;;;;;;;11.48;6.38;;;;;;;24.16;40.70;101686.28;16108613;19;130570;-51
2023/06/22 05:38:43;;;;;;;9.70;7.30;;;;;;;24.15;40.60;101689.34;16111669;19;130842;-44
2023/06/22 05:44:05;;;;;;;8.40;6.85;;;;;;;24.11;41.01;101681.47;16110212;19;130654;-43
2023/06/22 05:49:32;;;;;;;11.35;6.63;;;;;;;24.11;40.66;101680.66;16114720;19;129585;-43
2023/06/22 05:54:54;;;;;;;6.55;5.13;;;;;;;24.14;41.04;101696.03;16116907;19;130907;-43
2023/06/22 06:00:17;;;;;;;5.43;4.28;;;;;;;24.17;41.01;101698.31;16112899;19;131792;-42
2023/06/22 06:05:38;;;;;;;6.45;3.40;;;;;;;24.18;40.73;101706.41;16115463;19;130510;-44
2023/06/22 06:11:00;;;;;;;4.25;3.30;;;;;;;24.19;40.65;101693.28;16111261;19;129650;-47
2023/06/22 06:16:23;;;;;;;4.78;3.20;;;;;;;24.21;40.90;101680.75;16111959;19;129310;-42
2023/06/22 06:21:45;;;;;;;5.45;3.40;;;;;;;24.21;40.94;101686.31;16113418;19;130277;-42
2023/06/22 06:27:08;;;;;;;4.70;3.00;;;;;;;24.23;40.86;101689.69;16114042;19;129750;-43
2023/06/22 06:32:30;;;;;;;6.93;3.58;;;;;;;24.24;40.90;101690.53;16114664;19;134780;-43
2023/06/22 06:37:52;;;;;;;6.55;3.60;;;;;;;24.25;40.88;101675.47;16111525;19;130298;-44
2023/06/22 06:43:14;;;;;;;7.15;3.28;;;;;;;24.21;40.91;101663.97;16115367;19;130136;-47
2023/06/22 06:48:36;;;;;;;7.50;5.75;;;;;;;24.18;40.93;101667.28;16113081;19;130793;-44
2023/06/22 06:53:58;;;;;;;9.88;7.78;;;;;;;24.15;41.28;101648.25;16110849;19;130270;-45
2023/06/22 06:59:20;;;;;;;10.68;8.45;;;;;;;24.11;41.00;101638.72;16109540;19;131933;-43
2023/06/22 07:04:42;;;;;;;9.85;7.55;;;;;;;24.10;41.37;101645.41;16110319;19;129528;-47
2023/06/22 07:10:05;;;;;;;12.95;7.70;;;;;;;24.08;41.58;101634.47;16106757;19;129555;-47
2023/06/22 07:15:27;;;;;;;8.43;6.50;;;;;;;24.10;41.40;101609.91;16110350;19;129865;-46
2023/06/22 07:20:49;;;;;;;8.77;5.88;;;;;;;24.11;41.19;101596.78;16110268;19;130028;-42
2023/06/22 07:26:12;;;;;;;8.75;5.32;;;;;;;24.12;41.13;101596.50;16109728;19;130055;-49
2023/06/22 07:31:34;;;;;;;6.70;4.85;;;;;;;24.12;41.17;101570.53;16113448;19;130242;-43
2023/06/22 07:36:56;;;;;;;6.80;4.88;;;;;;;24.13;41.25;101555.41;16117419;19;132426;-42
2023/06/22 07:42:18;;;;;;;5.82;4.40;;;;;;;24.14;41.05;101559.06;16124428;19;129414;-45
2023/06/22 07:47:41;;;;;;;7.05;4.25;;;;;;;24.12;41.08;101554.59;16122266;19;129443;-46
2023/06/22 07:53:03;;;;;;;11.55;5.38;;;;;;;24.06;41.35;101532.44;16120550;19;131484;-46
2023/06/22 07:58:25;;;;;;;29.10;13.65;;;;;;;23.82;41.45;101527.25;16121811;19;129426;-47
2023/06/22 08:03:48;;;;;;;13.23;7.93;;;;;;;23.77;41.11;101535.59;16119331;19;129605;-45
2023/06/22 08:09:10;;;;;;;21.45;7.80;;;;;;;23.72;41.15;101538.34;16123629;19;131025;-45
2023/06/22 08:14:32;;;;;;;26.13;11.18;;;;;;;23.67;41.08;101544.75;16121286;19;130198;-45
2023/06/22 08:19:54;;;;;;;14.68;6.75;;;;;;;23.60;40.76;101541.31;16120602;19;130640;-49
2023/06/22 08:25:16;;;;;;;17.38;8.80;;;;;;;23.54;39.94;101528.38;16115502;19;130157;-44
2023/06/22 08:30:38;;;;;;;107.13;51.00;;;;;;;23.50;39.58;101530.88;16118264;19;129696;-44
2023/06/22 08:36:00;;;;;;;134.60;69.68;;;;;;;23.48;39.57;101533.91;16121316;19;130650;-44
2023/06/22 08:41:22;;;;;;;207.52;110.35;;;;;;;23.50;40.11;101530.88;16119626;19;129984;-45
2023/06/22 08:46:44;;;;;;;60.58;30.73;;;;;;;23.54;39.81;101537.59;16113784;19;131485;-44
2023/06/22 08:52:07;;;;;;;24.52;11.57;;;;;;;23.54;39.57;101522.81;16116917;19;130292;-48
2023/06/22 08:57:30;;;;;;;11.70;5.55;;;;;;;23.50;39.34;101519.72;16117761;19;130486;-44
2023/06/22 09:02:52;;;;;;;14.38;5.18;;;;;;;23.46;39.61;101521.34;16117468;19;129410;-47
2023/06/22 09:08:14;;;;;;;12.98;6.55;;;;;;;23.44;39.40;101509.59;16119455;19;129525;-46
2023/06/22 09:13:36;;;;;;;13.45;8.90;;;;;;;23.47;39.61;101518.25;16115986;19;131128;-49
2023/06/22 09:18:58;;;;;;;17.25;9.98;;;;;;;23.48;39.83;101513.53;16119795;19;129368;-43
2023/06/22 09:24:20;;;;;;;12.70;8.57;;;;;;;23.48;39.55;101513.53;16121188;19;129724;-46
2023/06/22 09:29:43;;;;;;;24.38;12.57;;;;;;;23.47;39.81;101512.69;16118704;19;130879;-44
2023/06/22 09:35:06;;;;;;;27.42;15.38;;;;;;;23.50;40.27;101517.75;16118748;19;130114;-43
2023/06/22 09:40:28;;;;;;;22.38;14.27;;;;;;;23.53;40.20;101529.50;16119654;19;130124;-45
2023/06/22 09:45:50;;;;;;;23.25;13.90;;;;;;;23.60;40.28;101552.47;16114527;19;129965;-43
2023/06/22 09:51:12;;;;;;;22.13;14.55;;;;;;;23.65;40.45;101558.94;16115404;19;129889;-44
2023/06/22 09:56:37;;;;;;;21.92;14.80;;;;;;;23.72;40.22;101571.88;16113137;19;129896;-43
2023/06/22 10:01:59;;;;;;;21.80;12.68;;;;;;;23.75;40.28;101579.72;16112006;19;130496;-48
2023/06/22 10:07:21;;;;;;;22.35;9.68;;;;;;;23.76;40.36;101596.22;16111952;19;131064;-48
2023/06/22 10:12:47;;;;;;;15.93;8.90;;;;;;;23.80;40.43;101613.28;16114210;19;130084;-48
2023/06/22 10:18:09;;;;;;;14.43;7.70;;;;;;;23.79;40.75;101625.56;16111003;19;130378;-43
2023/06/22 10:23:31;;;;;;;19.60;6.80;;;;;;;23.81;40.81;101631.75;16115962;19;130227;-46
2023/06/22 10:28:53;;;;;;;13.82;7.25;;;;;;;23.81;41.39;101631.75;16109473;19;129854;-45
2023/06/22 10:34:31;;;;;;;13.38;7.97;;;;;;;23.82;41.70;101623.09;16111688;19;130389;-43
2023/06/22 10:39:53;;;;;;;11.95;8.55;;;;;;;23.79;42.31;101600.41;16098003;19;130857;-44
2023/06/22 10:45:15;;;;;;;14.10;7.72;;;;;;;23.74;42.88;101600.41;16114230;19;134471;-49
2023/06/22 10:50:37;;;;;;;12.30;6.50;;;;;;;23.78;43.07;101582.81;16109841;19;129491;-43
2023/06/22 10:55:59;;;;;;;12.45;5.50;;;;;;;23.83;43.08;101570.84;16111023;19;131374;-48
2023/06/22 11:01:22;;;;;;;10.35;5.10;;;;;;;23.90;42.79;101557.47;16111705;19;129821;-46
2023/06/22 11:06:48;;;;;;;10.27;4.70;;;;;;;23.95;43.01;101562.25;16110465;19;129434;-49
2023/06/22 11:12:10;;;;;;;9.80;4.95;;;;;;;23.99;43.09;101543.88;16114132;19;129701;-45
2023/06/22 11:17:32;;;;;;;10.43;4.53;;;;;;;24.02;43.27;101542.47;16116411;19;129705;-47
2023/06/22 11:22:54;;;;;;;9.73;4.28;;;;;;;24.05;42.88;101548.41;16110569;19;129577;-49
2023/06/22 11:28:17;;;;;;;9.27;4.20;;;;;;;24.08;43.34;101535.81;16118547;19;131060;-46
2023/06/22 11:33:39;;;;;;;11.40;4.70;;;;;;;24.10;43.12;101514.88;16111266;19;131528;-47
2023/06/22 11:39:01;;;;;;;10.63;4.50;;;;;;;24.14;43.15;101506.78;16109540;19;130724;-51
2023/06/22 11:44:43;;;;;;;8.32;5.20;;;;;;;24.15;43.41;101485.28;16108400;19;129640;-49
2023/06/22 11:50:06;;;;;;;10.02;5.22;;;;;;;24.15;43.50;101463.75;16109775;19;131376;-47
2023/06/22 11:55:28;;;;;;;10.63;5.00;;;;;;;24.16;43.48;101453.41;16101488;19;129573;-47
2023/06/22 12:00:51;;;;;;;9.75;4.97;;;;;;;24.14;43.75;101461.22;16108473;19;133288;-46
2023/06/22 12:06:14;;;;;;;8.45;5.75;;;;;;;24.15;43.33;101472.13;16109676;19;129527;-49
2023/06/22 12:11:36;;;;;;;10.48;5.05;;;;;;;24.15;43.69;101462.91;16108513;19;129470;-49
2023/06/22 12:16:58;;;;;;;8.38;5.60;;;;;;;24.15;44.04;101460.94;16105957;19;129908;-48
2023/06/22 12:22:20;;;;;;;9.27;5.35;;;;;;;24.15;43.53;101463.75;16110229;19;129392;-49
2023/06/22 12:27:42;;;;;;;9.13;5.80;;;;;;;24.14;43.94;101456.47;16120254;19;131231;-49
2023/06/22 12:33:04;;;;;;;16.17;5.82;;;;;;;24.12;43.87;101445.56;16120055;19;131441;-47
2023/06/22 12:38:26;;;;;;;10.27;6.38;;;;;;;24.12;44.06;101439.97;16122378;19;129425;-50
2023/06/22 12:43:48;;;;;;;11.27;7.05;;;;;;;24.10;44.18;101428.22;16119554;19;129776;-45
2023/06/22 12:49:10;;;;;;;11.93;6.95;;;;;;;24.08;44.26;101426.81;16117146;19;129893;-45
2023/06/22 12:54:32;;;;;;;8.88;6.80;;;;;;;24.07;44.45;101420.38;16120947;19;130440;-46
2023/06/22 13:00:11;;;;;;;10.25;7.25;;;;;;;24.05;44.77;101413.38;16119101;19;130900;-50
2023/06/22 13:05:34;;;;;;;9.85;7.60;;;;;;;24.05;44.71;101402.19;16120317;19;130777;-48
2023/06/22 13:10:56;;;;;;;9.88;7.50;;;;;;;24.04;44.81;101400.50;16119497;19;130053;-47
2023/06/22 13:16:18;;;;;;;10.90;7.15;;;;;;;24.04;44.57;101394.94;16114225;19;131026;-46
2023/06/22 13:21:40;;;;;;;9.80;7.18;;;;;;;24.03;44.75;101398.81;16111882;19;130873;-50
2023/06/22 13:27:02;;;;;;;20.92;8.20;;;;;;;23.99;44.85;101386.53;16112344;19;130418;-51
2023/06/22 13:32:24;;;;;;;12.15;6.50;;;;;;;23.95;44.92;101384.28;16113944;19;129469;-49
2023/06/22 13:37:47;;;;;;;10.73;6.10;;;;;;;23.95;45.06;101392.66;16110840;19;129281;-46
2023/06/22 13:43:08;;;;;;;11.50;6.82;;;;;;;23.93;45.21;101397.69;16114314;19;130349;-48
2023/06/22 13:48:30;;;;;;;23.33;7.10;;;;;;;23.91;45.02;101405.47;16116209;19;132748;-49
2023/06/22 13:53:53;;;;;;;19.40;6.68;;;;;;;23.89;45.17;101410.50;16115813;19;129615;-49
2023/06/22 13:59:14;;;;;;;10.95;6.47;;;;;;;23.90;44.82;101417.78;16117595;19;129716;-52
2023/06/22 14:04:36;;;;;;;21.38;7.03;;;;;;;23.88;45.21;101419.16;16118048;19;130565;-50
2023/06/22 14:10:00;;;;;;;16.45;6.28;;;;;;;23.86;45.55;101399.88;16117561;19;130250;-48
2023/06/22 14:15:22;;;;;;;10.55;6.00;;;;;;;23.85;45.42;101402.94;16115266;19;130842;-48
2023/06/22 14:20:44;;;;;;;8.98;5.60;;;;;;;23.82;45.36;101404.31;16115604;19;130717;-47
2023/06/22 14:26:09;;;;;;;12.75;6.35;;;;;;;23.81;45.45;101411.00;16113913;19;130330;-50
2023/06/22 14:31:31;;;;;;;18.60;6.82;;;;;;;23.78;45.29;101398.44;16112538;19;130287;-49
2023/06/22 14:36:53;;;;;;;157.93;15.35;;;;;;;23.79;45.51;101394.53;16115243;19;129858;-49
2023/06/22 14:42:14;;;;;;;88.07;10.23;;;;;;;23.80;45.64;101395.34;16117607;19;129645;-50
2023/06/22 14:47:37;;;;;;;81.88;9.98;;;;;;;23.81;45.71;101385.88;16110948;19;129119;-54
2023/06/22 14:53:00;;;;;;;75.20;9.18;;;;;;;23.80;45.72;101395.34;16110080;19;130618;-50
2023/06/22 14:58:22;;;;;;;62.65;10.10;;;;;;;23.80;45.73;101386.97;16114568;19;130830;-48
2023/06/22 15:03:44;;;;;;;62.88;9.85;;;;;;;23.81;45.79;101388.66;16102036;19;130964;-51
2023/06/22 15:09:06;;;;;;;54.50;9.60;;;;;;;23.82;45.91;101387.56;16105948;19;131214;-50
2023/06/22 15:14:28;;;;;;;77.10;10.35;;;;;;;23.83;46.16;101394.81;16106572;19;129594;-49
2023/06/22 15:19:50;;;;;;;79.03;10.43;;;;;;;23.85;46.48;101388.97;16108195;19;130289;-50
2023/06/22 15:25:12;;;;;;;45.35;8.57;;;;;;;23.86;46.40;101399.03;16111972;19;130067;-55
2023/06/22 15:30:34;;;;;;;165.82;12.48;;;;;;;23.85;47.09;101408.50;16112703;19;131455;-51
2023/06/22 15:35:56;;;;;;;45.50;9.45;;;;;;;23.80;46.77;101412.13;16104207;19;130539;-60
2023/06/22 15:41:18;;;;;;;44.15;9.52;;;;;;;23.79;46.76;101404.84;16113044;19;129509;-59
2023/06/22 15:46:40;;;;;;;31.23;9.15;;;;;;;23.78;46.79;101415.19;16110110;19;129927;-59
2023/06/22 15:52:02;;;;;;;39.28;8.27;;;;;;;23.78;46.89;101414.34;16110764;19;130359;-59
2023/06/22 15:57:26;;;;;;;27.48;8.02;;;;;;;23.78;47.25;101405.97;16113248;19;129490;-60
2023/06/22 16:02:48;;;;;;;28.50;7.95;;;;;;;23.78;46.84;101405.97;16123184;19;130886;-60
2023/06/22 16:08:13;;;;;;;15.80;7.63;;;;;;;23.78;46.99;101408.75;16124792;19;131436;-59
2023/06/22 16:13:35;;;;;;;17.42;6.38;;;;;;;23.76;46.76;101410.97;16126690;19;129929;-59
2023/06/22 16:18:57;;;;;;;22.60;7.30;;;;;;;23.78;46.99;101400.38;16123555;19;129515;-63
2023/06/22 16:24:19;;;;;;;24.83;7.25;;;;;;;23.79;46.99;101410.44;16117686;19;130426;-61
2023/06/22 16:29:41;;;;;;;18.80;8.15;;;;;;;23.78;47.33;101404.03;16124037;19;130376;-62
2023/06/22 16:35:06;;;;;;;14.57;6.10;;;;;;;23.80;47.02;101412.13;16118167;19;131050;-61
2023/06/22 16:40:28;;;;;;;17.25;7.18;;;;;;;23.80;47.09;101410.19;16122759;19;130274;-66
2023/06/22 16:45:50;;;;;;;16.60;7.70;;;;;;;23.82;47.22;101415.50;16124271;19;129884;-60
2023/06/22 16:51:12;;;;;;;10.30;6.65;;;;;;;23.82;46.97;101413.53;16121488;19;130842;-60
2023/06/22 16:56:35;;;;;;;16.25;6.82;;;;;;;23.83;47.06;101417.19;16125488;19;129842;-60
2023/06/22 17:01:57;;;;;;;14.30;7.03;;;;;;;23.82;47.08;101409.91;16120950;19;129766;-59
2023/06/22 17:07:21;;;;;;;12.60;7.13;;;;;;;23.81;47.53;101423.06;16116513;19;129490;-59
2023/06/22 17:12:45;;;;;;;12.32;7.20;;;;;;;23.83;47.40;101431.16;16121662;19;129536;-57
2023/06/22 17:18:08;;;;;;;15.05;6.25;;;;;;;23.82;47.13;101437.84;16119775;19;130429;-59
2023/06/22 17:23:30;;;;;;;13.00;6.38;;;;;;;23.84;47.19;101452.41;16119393;19;129896;-57
2023/06/22 17:29:01;;;;;;;14.82;6.63;;;;;;;23.86;47.32;101454.91;16118574;19;130509;-55
2023/06/22 17:34:28;;;;;;;16.00;6.05;;;;;;;23.87;47.08;101463.03;16112273;19;132104;-54
2023/06/22 17:39:53;;;;;;;13.15;5.88;;;;;;;23.90;47.11;101468.06;16024058;19;138695;-53
2023/06/22 17:45:22;;;;;;;14.30;6.43;;;;;;;23.91;47.22;101480.94;16117400;19;129765;-53
2023/06/22 17:50:44;;;;;;;13.70;6.65;;;;;;;23.90;47.28;101496.00;16111872;19;132059;-55
2023/06/22 17:56:06;;;;;;;9.38;7.10;;;;;;;23.87;47.26;101495.72;16109659;19;129733;-58
2023/06/22 18:01:30;;;;;;;14.52;6.18;;;;;;;23.86;47.15;101500.47;16114776;19;130065;-57
2023/06/22 18:06:54;;;;;;;16.95;9.75;;;;;;;23.80;47.75;101501.53;16115910;19;131083;-56
2023/06/22 18:12:17;;;;;;;20.08;10.52;;;;;;;23.75;47.71;101504.31;16111630;19;130154;-57
2023/06/22 18:17:41;;;;;;;11.98;8.90;;;;;;;23.73;48.05;101498.97;16109344;19;131224;-56
2023/06/22 18:23:04;;;;;;;11.00;7.97;;;;;;;23.75;47.75;101507.09;16108008;19;131123;-56
2023/06/22 18:28:26;;;;;;;11.43;6.68;;;;;;;23.79;47.88;101513.81;16105930;19;130294;-58
2023/06/22 18:33:58;;;;;;;15.65;6.80;;;;;;;23.82;48.10;101528.09;16109164;19;129441;-57
2023/06/22 18:39:22;;;;;;;11.55;6.85;;;;;;;23.86;47.69;101528.41;16110536;19;129249;-52
2023/06/22 18:44:43;;;;;;;36.42;6.78;;;;;;;23.89;48.02;101533.44;16109450;19;130650;-49
2023/06/22 18:50:07;;;;;;;21.83;6.32;;;;;;;23.93;47.82;101531.81;16111278;19;131907;-53
2023/06/22 18:55:32;;;;;;;38.30;6.60;;;;;;;23.96;47.86;101536.88;16111821;19;130368;-52
2023/06/22 19:01:15;;;;;;;19.85;6.40;;;;;;;24.00;47.67;101553.09;16113080;19;130206;-53
2023/06/22 19:06:52;;;;;;;14.45;6.07;;;;;;;24.01;47.41;101550.03;16111696;19;130238;-51
2023/06/22 19:12:22;;;;;;;16.52;5.20;;;;;;;24.00;47.47;101555.91;16112192;19;130542;-54
2023/06/22 19:17:46;;;;;;;9.85;4.90;;;;;;;24.00;47.49;101559.53;16111211;19;131546;-54
2023/06/22 19:23:39;;;;;;;17.40;4.65;;;;;;;24.01;47.34;101563.16;16107605;19;130776;-55
2023/06/22 19:29:14;;;;;;;9.85;4.65;;;;;;;24.01;47.44;101563.16;16112207;19;129175;-56
2023/06/22 19:34:44;;;;;;;11.17;4.63;;;;;;;24.02;47.48;101576.00;16110112;19;130770;-56
2023/06/22 19:40:10;;;;;;;13.10;4.68;;;;;;;24.03;47.46;101586.09;16106483;19;131242;-51
2023/06/22 19:45:32;;;;;;;9.10;4.15;;;;;;;24.02;47.50;101606.75;16106685;19;130613;-51
2023/06/22 19:50:55;;;;;;;13.75;4.75;;;;;;;24.02;47.45;101623.53;16103794;19;129720;-55
2023/06/22 19:56:23;;;;;;;10.90;4.32;;;;;;;24.01;47.42;101625.50;16104742;19;130541;-55
2023/06/22 20:01:45;;;;;;;5.28;3.70;;;;;;;24.00;47.40;101629.41;16104203;19;130641;-55
2023/06/22 20:07:07;;;;;;;8.85;4.30;;;;;;;23.99;47.71;101650.06;16109389;19;130790;-58
2023/06/22 20:12:29;;;;;;;13.48;4.68;;;;;;;24.00;47.48;101656.50;16103583;19;129633;-55
2023/06/22 20:18:12;;;;;;;17.38;4.55;;;;;;;23.98;47.54;101653.97;16103392;19;129751;-56
2023/06/22 20:23:34;;;;;;;14.15;4.22;;;;;;;23.96;47.35;101668.22;16108174;19;131287;-56
2023/06/22 20:28:59;;;;;;;11.68;4.53;;;;;;;23.93;47.34;101671.53;16102536;19;135649;-54
2023/06/22 20:34:21;;;;;;;;;;;;;;;23.86;47.43;101662.53;16104646;19;130578;-56
2023/06/22 20:39:43;;;;;;;10.20;3.83;;;;;;;23.86;47.45;101662.53;16108149;19;130860;-55
2023/06/22 20:45:09;;;;;;;11.38;3.90;;;;;;;23.84;47.40;101670.34;16119067;19;129670;-55
2023/06/22 20:50:32;;;;;;;8.85;3.40;;;;;;;23.82;47.49;101672.53;16158255;19;132076;-55
2023/06/22 20:55:54;;;;;;;10.77;3.45;;;;;;;23.80;47.43;101691.53;16155247;19;130505;-55
2023/06/22 21:01:17;;;;;;;11.32;3.53;;;;;;;23.78;47.51;101676.97;16144455;19;134150;-56
2023/06/22 21:06:39;;;;;;;10.30;3.72;;;;;;;23.77;47.45;101680.84;16122286;19;129774;-56
2023/06/22 21:12:01;;;;;;;6.80;3.95;;;;;;;23.76;47.09;101681.97;16111866;19;128990;-54
2023/06/22 21:17:24;;;;;;;8.13;3.58;;;;;;;23.74;47.14;101693.41;16114790;19;131964;-55
2023/06/22 21:22:47;;;;;;;6.07;3.15;;;;;;;23.73;46.83;101690.91;16122997;19;130260;-55
2023/06/22 21:28:09;;;;;;;10.00;3.47;;;;;;;23.72;46.75;101690.03;16115069;19;131023;-58
2023/06/22 21:33:31;;;;;;;8.30;3.90;;;;;;;23.70;47.01;101686.66;16111453;19;129478;-55
2023/06/22 21:38:54;;;;;;;7.00;3.50;;;;;;;23.70;47.32;101705.38;16114101;19;129595;-55
2023/06/22 21:44:16;;;;;;;8.15;3.85;;;;;;;23.68;47.06;101710.38;16121936;19;133768;-54
2023/06/22 21:49:38;;;;;;;7.38;3.72;;;;;;;23.68;46.91;101710.38;16118354;19;131648;-55
2023/06/22 21:55:00;;;;;;;7.93;4.25;;;;;;;23.66;46.68;101713.44;16117329;19;129542;-58
2023/06/22 22:00:22;;;;;;;8.07;4.03;;;;;;;23.64;47.09;101710.91;16117790;19;131207;-56
2023/06/22 22:05:44;;;;;;;4.55;3.70;;;;;;;23.63;46.95;101719.56;16118729;19;129449;-55
2023/06/22 22:11:07;;;;;;;6.95;4.10;;;;;;;23.61;47.06;101731.00;16119533;19;129612;-56
2023/06/22 22:16:29;;;;;;;6.88;3.80;;;;;;;23.60;47.17;101748.84;16114298;19;129895;-51
2023/06/22 22:21:51;;;;;;;7.82;3.63;;;;;;;23.61;47.16;101746.91;16111543;19;133752;-52
2023/06/22 22:27:13;;;;;;;7.88;3.42;;;;;;;23.59;46.71;101740.72;16113203;19;129429;-53
2023/06/22 22:32:35;;;;;;;10.23;3.20;;;;;;;23.59;46.69;101758.34;16111541;19;130058;-47
2023/06/22 22:37:57;;;;;;;6.60;3.42;;;;;;;23.58;46.39;101770.63;16113776;19;130177;-52
2023/06/22 22:43:19;;;;;;;8.40;3.30;;;;;;;23.56;46.44;101777.53;16108966;19;129896;-56
2023/06/22 22:48:41;;;;;;;6.32;3.60;;;;;;;23.55;46.69;101792.59;16105480;19;129992;-52
2023/06/22 22:54:03;;;;;;;8.13;3.33;;;;;;;23.55;46.80;101789.81;16112691;19;131509;-52
2023/06/22 22:59:25;;;;;;;3.58;2.95;;;;;;;23.54;46.66;101799.28;16105643;19;130471;-53
2023/06/22 23:04:56;;;;;;;3.85;2.80;;;;;;;23.52;46.49;101807.91;16105307;19;130143;-55
2023/06/22 23:10:19;;;;;;;6.43;3.53;;;;;;;23.51;46.56;101801.50;16105040;19;131477;-56
2023/06/22 23:15:41;;;;;;;4.40;3.10;;;;;;;23.50;46.62;101812.94;16104070;19;130064;-53
2023/06/22 23:21:04;;;;;;;7.13;3.50;;;;;;;23.50;46.16;101810.16;16106223;19;130883;-55
2023/06/22 23:26:28;;;;;;;5.78;3.15;;;;;;;23.48;46.39;101812.34;16106549;19;130505;-57
2023/06/22 23:31:53;;;;;;;6.88;3.63;;;;;;;23.48;46.36;101820.72;16103470;19;130446;-50
2023/06/22 23:37:15;;;;;;;8.23;3.22;;;;;;;23.46;46.53;101820.97;16112271;19;129750;-51
2023/06/22 23:42:46;;;;;;;6.60;3.20;;;;;;;23.44;46.45;101819.53;16108448;19;129502;-55
2023/06/22 23:48:09;;;;;;;4.50;3.22;;;;;;;23.44;46.31;101836.28;16106234;19;129996;-54
2023/06/22 23:53:31;;;;;;;4.38;3.35;;;;;;;23.43;46.17;101842.97;16107761;19;129606;-52
2023/06/22 23:58:53;;;;;;;6.50;2.75;;;;;;;23.42;46.27;101841.28;16104222;19;131423;-55
